createdAt,value
2018-07-11T00:00:47.506Z,47.00
2018-07-11T00:03:15.649Z,46.76
2018-07-11T00:05:43.379Z,47.09
2018-07-11T00:08:11.057Z,46.87
2018-07-11T00:10:38.767Z,46.67
2018-07-11T00:13:06.436Z,47.94
2018-07-11T00:15:34.146Z,48.80
2018-07-11T00:18:01.876Z,49.05
2018-07-11T00:20:29.560Z,47.83
2018-07-11T00:22:57.389Z,47.29
2018-07-11T00:25:25.209Z,47.41
2018-07-11T00:27:53.008Z,47.81
2018-07-11T00:30:20.732Z,47.73
2018-07-11T00:32:48.488Z,47.87
2018-07-11T00:35:16.286Z,48.15
2018-07-11T00:37:44.090Z,48.60
2018-07-11T00:40:11.924Z,49.74
2018-07-11T00:42:39.691Z,49.99
2018-07-11T00:45:07.537Z,48.64
2018-07-11T00:47:35.345Z,48.27
2018-07-11T00:50:03.017Z,48.28
2018-07-11T00:52:33.202Z,48.65
2018-07-11T00:55:00.951Z,48.57
2018-07-11T00:57:28.732Z,48.58
2018-07-11T00:59:56.553Z,48.99
2018-07-11T01:02:24.372Z,50.15
2018-07-11T01:04:52.236Z,49.54
2018-07-11T01:09:46.257Z,48.64
2018-07-11T01:12:14.147Z,48.48
2018-07-11T01:14:42.026Z,48.89
2018-07-11T01:17:15.547Z,49.04
2018-07-11T01:19:44.104Z,50.46
2018-07-11T01:22:11.896Z,49.95
2018-07-11T01:24:39.682Z,49.36
2018-07-11T01:27:07.524Z,48.92
2018-07-11T01:29:35.349Z,48.77
2018-07-11T01:32:03.061Z,49.51
2018-07-11T01:34:30.785Z,49.45
2018-07-11T01:36:58.538Z,50.89
2018-07-11T01:39:26.332Z,51.06
2018-07-11T01:41:54.103Z,50.35
2018-07-11T01:44:21.870Z,50.84
2018-07-11T01:46:50.914Z,51.77
2018-07-11T01:49:18.779Z,51.97
2018-07-11T01:51:57.945Z,50.69
2018-07-11T01:54:28.164Z,50.70
2018-07-11T01:56:56.140Z,50.23
2018-07-11T01:59:26.611Z,50.27
2018-07-11T02:01:54.683Z,51.20
2018-07-11T02:04:22.567Z,50.95
2018-07-11T02:06:50.390Z,52.70
2018-07-11T02:09:18.403Z,52.87
2018-07-11T02:11:46.140Z,53.53
2018-07-11T02:14:14.017Z,53.19
2018-07-11T02:16:41.889Z,53.52
2018-07-11T02:19:09.723Z,53.73
2018-07-11T02:21:37.615Z,53.93
2018-07-11T02:24:05.852Z,53.97
2018-07-11T02:26:33.662Z,54.04
2018-07-11T02:29:01.521Z,53.36
2018-07-11T02:31:29.420Z,53.43
2018-07-11T02:33:57.337Z,53.94
2018-07-11T02:36:25.141Z,53.47
2018-07-11T02:38:52.951Z,53.93
2018-07-11T02:41:21.007Z,53.31
2018-07-11T02:43:49.423Z,53.46
2018-07-11T02:46:18.573Z,53.53
2018-07-11T02:48:46.380Z,53.19
2018-07-11T02:51:14.227Z,52.78
2018-07-11T02:53:42.005Z,51.96
2018-07-11T02:56:13.243Z,51.41
2018-07-11T02:58:41.055Z,50.98
2018-07-11T03:01:08.781Z,50.53
2018-07-11T03:03:36.527Z,50.32
2018-07-11T03:06:04.267Z,51.03
2018-07-11T03:08:35.960Z,52.49
2018-07-11T03:11:04.574Z,52.61
2018-07-11T03:13:32.427Z,52.50
2018-07-11T03:16:00.274Z,53.00
2018-07-11T03:18:28.055Z,52.28
2018-07-11T03:20:55.887Z,52.98
2018-07-11T03:23:23.684Z,52.90
2018-07-11T03:25:51.639Z,53.22
2018-07-11T03:28:19.454Z,52.89
2018-07-11T03:30:47.195Z,52.90
2018-07-11T03:33:14.994Z,53.03
2018-07-11T03:35:42.722Z,52.63
2018-07-11T03:38:10.515Z,52.82
2018-07-11T03:40:38.335Z,52.99
2018-07-11T03:43:06.147Z,52.90
2018-07-11T03:45:33.931Z,52.64
2018-07-11T03:48:01.668Z,52.63
2018-07-11T03:50:29.417Z,52.98
2018-07-11T03:52:57.171Z,53.49
2018-07-11T03:55:24.884Z,53.69
2018-07-11T03:57:52.606Z,53.28
2018-07-11T04:00:20.414Z,52.18
2018-07-11T04:02:48.113Z,50.64
2018-07-11T04:05:15.827Z,49.33
2018-07-11T04:07:43.557Z,49.10
2018-07-11T04:10:11.275Z,48.45
2018-07-11T04:12:38.983Z,47.62
2018-07-11T04:15:06.700Z,46.79
2018-07-11T04:17:34.441Z,46.71
2018-07-11T04:20:02.173Z,45.99
2018-07-11T04:22:29.943Z,45.67
2018-07-11T04:24:57.738Z,46.07
2018-07-11T04:27:25.638Z,45.30
2018-07-11T04:29:53.428Z,44.88
2018-07-11T04:32:21.259Z,45.10
2018-07-11T04:34:49.118Z,45.42
2018-07-11T04:37:16.899Z,45.03
2018-07-11T04:39:44.911Z,44.04
2018-07-11T04:42:12.714Z,43.68
2018-07-11T04:44:40.603Z,43.41
2018-07-11T04:47:08.490Z,43.23
2018-07-11T04:49:36.474Z,42.83
2018-07-11T04:52:04.280Z,42.94
2018-07-11T04:54:32.150Z,42.40
2018-07-11T04:57:00.008Z,43.25
2018-07-11T04:59:27.722Z,44.03
2018-07-11T05:01:55.435Z,43.52
2018-07-11T05:04:23.250Z,43.25
2018-07-11T05:06:50.940Z,43.14
2018-07-11T05:09:18.651Z,42.45
2018-07-11T05:11:46.371Z,42.53
2018-07-11T05:14:14.086Z,41.89
2018-07-11T05:16:41.799Z,41.60
2018-07-11T05:19:09.551Z,41.31
2018-07-11T05:21:37.266Z,41.27
2018-07-11T05:24:04.968Z,41.22
2018-07-11T05:26:32.681Z,41.15
2018-07-11T05:29:00.397Z,41.70
2018-07-11T05:31:28.101Z,41.32
2018-07-11T05:33:55.850Z,40.45
2018-07-11T05:36:23.588Z,41.39
2018-07-11T05:38:51.335Z,39.92
2018-07-11T05:41:19.062Z,40.26
2018-07-11T05:43:46.779Z,40.16
2018-07-11T05:46:14.490Z,39.79
2018-07-11T05:48:42.215Z,39.53
2018-07-11T05:51:09.915Z,39.48
2018-07-11T05:53:37.626Z,38.19
2018-07-11T05:56:05.332Z,38.71
2018-07-11T05:58:33.043Z,37.64
2018-07-11T06:01:00.771Z,37.31
2018-07-11T06:03:28.487Z,37.61
2018-07-11T06:05:56.211Z,36.75
2018-07-11T06:08:23.959Z,37.72
2018-07-11T06:10:51.656Z,37.47
2018-07-11T06:13:19.434Z,37.42
2018-07-11T06:15:47.756Z,37.70
2018-07-11T06:18:15.494Z,37.44
2018-07-11T06:20:43.183Z,37.16
2018-07-11T06:23:10.973Z,37.29
2018-07-11T06:25:38.699Z,38.15
2018-07-11T06:28:06.450Z,37.76
2018-07-11T06:30:34.210Z,36.92
2018-07-11T06:33:02.099Z,36.25
2018-07-11T06:35:29.830Z,37.39
2018-07-11T06:37:57.620Z,37.17
2018-07-11T06:40:25.337Z,36.77
2018-07-11T06:42:53.583Z,36.22
2018-07-11T06:45:21.320Z,35.86
2018-07-11T06:47:49.085Z,35.31
2018-07-11T06:50:16.777Z,36.00
2018-07-11T06:52:44.499Z,35.57
2018-07-11T06:55:12.200Z,36.34
2018-07-11T06:57:39.947Z,35.92
2018-07-11T07:00:07.744Z,36.01
2018-07-11T07:02:35.454Z,36.66
2018-07-11T07:05:03.272Z,36.76
2018-07-11T07:07:30.984Z,37.06
2018-07-11T07:09:58.717Z,37.38
2018-07-11T07:12:26.428Z,37.33
2018-07-11T07:14:54.130Z,36.24
2018-07-11T07:17:21.870Z,36.59
2018-07-11T07:19:49.587Z,36.74
2018-07-11T07:22:17.287Z,37.09
2018-07-11T07:24:45.019Z,36.78
2018-07-11T07:27:12.759Z,36.91
2018-07-11T07:29:40.459Z,37.13
2018-07-11T07:32:08.171Z,37.26
2018-07-11T07:34:35.920Z,37.73
2018-07-11T07:37:03.649Z,37.23
2018-07-11T07:39:31.706Z,37.96
2018-07-11T07:41:59.585Z,38.20
2018-07-11T07:44:27.400Z,38.20
2018-07-11T07:46:59.099Z,37.81
2018-07-11T07:49:27.243Z,37.92
2018-07-11T07:51:55.099Z,37.84
2018-07-11T07:54:23.213Z,38.70
2018-07-11T07:56:51.059Z,38.99
2018-07-11T07:59:18.915Z,38.92
2018-07-11T08:01:46.724Z,38.66
2018-07-11T08:04:14.566Z,39.56
2018-07-11T08:06:42.333Z,39.67
2018-07-11T08:09:10.009Z,40.28
2018-07-11T08:11:37.739Z,40.67
2018-07-11T08:14:05.512Z,40.98
2018-07-11T08:16:33.222Z,40.51
2018-07-11T08:19:00.935Z,40.49
2018-07-11T08:21:28.725Z,40.73
2018-07-11T08:24:07.494Z,40.41
2018-07-11T08:26:46.345Z,40.73
2018-07-11T08:29:26.038Z,40.85
2018-07-11T08:34:13.195Z,41.12
2018-07-11T08:37:58.340Z,41.89
2018-07-11T08:40:37.329Z,41.88
2018-07-11T08:43:26.269Z,42.09
2018-07-11T08:46:04.986Z,43.33
2018-07-11T08:48:43.921Z,43.59
2018-07-11T08:51:56.123Z,43.17
2018-07-11T08:54:37.162Z,43.63
2018-07-11T08:57:19.079Z,42.31
2018-07-11T08:59:57.212Z,41.66
2018-07-11T09:02:39.462Z,41.39
2018-07-11T09:05:24.829Z,40.89
2018-07-11T09:10:10.010Z,40.62
2018-07-11T09:12:55.356Z,38.57
2018-07-11T09:15:34.885Z,38.79
2018-07-11T09:18:13.974Z,39.26
2018-07-11T09:20:52.923Z,39.21
2018-07-11T09:23:33.691Z,38.65
2018-07-11T09:26:01.346Z,39.38
2018-07-11T09:28:29.046Z,39.19
2018-07-11T09:30:56.769Z,39.44
2018-07-11T09:33:24.481Z,39.16
2018-07-11T09:35:52.172Z,39.91
2018-07-11T09:38:19.832Z,40.35
2018-07-11T09:40:47.561Z,40.04
2018-07-11T09:43:15.370Z,40.69
2018-07-11T09:45:43.277Z,40.39
2018-07-11T09:48:11.068Z,40.89
2018-07-11T09:50:39.157Z,40.87
2018-07-11T09:53:06.938Z,40.69
2018-07-11T09:55:34.760Z,40.33
2018-07-11T09:58:02.558Z,40.09
2018-07-11T10:00:35.794Z,40.18
2018-07-11T10:03:03.589Z,40.13
2018-07-11T10:05:31.371Z,40.12
2018-07-11T10:07:59.032Z,40.26
2018-07-11T10:10:26.715Z,40.05
2018-07-11T10:12:54.450Z,40.73
2018-07-11T10:15:22.120Z,40.93
2018-07-11T10:17:49.921Z,40.44
2018-07-11T10:20:17.597Z,40.64
2018-07-11T10:22:45.367Z,40.43
2018-07-11T10:25:13.109Z,40.84
2018-07-11T10:27:41.525Z,40.76
2018-07-11T10:30:09.205Z,41.11
2018-07-11T10:32:36.869Z,40.48
2018-07-11T10:35:04.747Z,40.72
2018-07-11T10:37:32.450Z,41.06
2018-07-11T10:40:00.141Z,40.54
2018-07-11T10:42:28.161Z,40.57
2018-07-11T10:44:56.157Z,40.37
2018-07-11T10:47:23.861Z,40.02
2018-07-11T10:49:51.547Z,40.32
2018-07-11T10:52:19.312Z,39.76
2018-07-11T10:54:47.143Z,40.33
2018-07-11T10:57:14.947Z,39.55
2018-07-11T10:59:42.724Z,39.71
2018-07-11T11:02:11.957Z,42.31
2018-07-11T11:04:39.637Z,43.22
2018-07-11T11:07:07.422Z,43.12
2018-07-11T11:09:35.097Z,43.56
2018-07-11T11:12:02.840Z,43.75
2018-07-11T11:14:30.498Z,43.34
2018-07-11T11:16:58.175Z,43.71
2018-07-11T11:19:26.002Z,43.44
2018-07-11T11:21:53.793Z,43.69
2018-07-11T11:24:21.540Z,44.66
2018-07-11T11:26:49.214Z,43.86
2018-07-11T11:29:16.997Z,44.50
2018-07-11T11:31:44.726Z,45.17
2018-07-11T11:34:12.437Z,44.43
2018-07-11T11:36:40.154Z,44.49
2018-07-11T11:39:07.897Z,46.06
2018-07-11T11:41:35.691Z,46.17
2018-07-11T11:44:03.383Z,45.83
2018-07-11T11:46:31.079Z,45.71
2018-07-11T11:48:58.814Z,45.68
2018-07-11T11:51:26.502Z,45.93
2018-07-11T11:53:54.313Z,46.13
2018-07-11T11:56:21.997Z,46.12
2018-07-11T11:58:49.692Z,46.44
2018-07-11T12:01:17.387Z,46.38
2018-07-11T12:03:45.086Z,46.71
2018-07-11T12:06:12.795Z,46.97
2018-07-11T12:08:40.525Z,47.17
2018-07-11T12:11:08.246Z,47.39
2018-07-11T12:13:35.996Z,47.32
2018-07-11T12:16:05.618Z,47.42
2018-07-11T12:18:33.308Z,47.32
2018-07-11T12:21:01.069Z,47.46
2018-07-11T12:23:29.053Z,47.30
2018-07-11T12:26:12.774Z,47.24
2018-07-11T12:28:40.477Z,47.53
2018-07-11T12:31:08.189Z,47.32
2018-07-11T12:33:36.006Z,47.13
2018-07-11T12:36:03.941Z,48.07
2018-07-11T12:38:32.479Z,47.75
2018-07-11T12:41:00.340Z,48.28
2018-07-11T12:43:28.270Z,48.11
2018-07-11T12:45:56.677Z,49.00
2018-07-11T12:48:29.937Z,49.81
2018-07-11T12:50:57.785Z,49.29
2018-07-11T12:53:25.561Z,49.93
2018-07-11T12:55:53.321Z,50.15
2018-07-11T12:58:21.063Z,49.56
2018-07-11T13:00:49.145Z,49.46
2018-07-11T13:03:16.975Z,47.14
2018-07-11T13:05:44.776Z,46.84
2018-07-11T13:08:12.543Z,45.99
2018-07-11T13:10:40.351Z,45.12
2018-07-11T13:13:08.111Z,44.75
2018-07-11T13:15:35.853Z,44.97
2018-07-11T13:18:03.586Z,44.28
2018-07-11T13:20:31.315Z,44.08
2018-07-11T13:22:59.054Z,44.44
2018-07-11T13:25:26.826Z,44.25
2018-07-11T13:27:54.557Z,45.05
2018-07-11T13:30:23.270Z,46.67
2018-07-11T13:32:51.057Z,47.83
2018-07-11T13:35:18.829Z,49.59
2018-07-11T13:37:46.617Z,49.38
2018-07-11T13:40:14.318Z,49.61
2018-07-11T13:42:42.898Z,49.91
2018-07-11T13:45:10.646Z,50.60
2018-07-11T13:47:38.382Z,50.42
2018-07-11T13:50:06.077Z,51.26
2018-07-11T13:52:33.950Z,51.60
2018-07-11T13:55:01.746Z,50.70
2018-07-11T13:57:29.571Z,50.64
2018-07-11T13:59:57.293Z,50.37
2018-07-11T14:02:25.050Z,50.71
2018-07-11T14:04:52.808Z,51.29
2018-07-11T14:07:20.583Z,51.44
2018-07-11T14:09:48.273Z,51.66
2018-07-11T14:12:16.058Z,51.01
2018-07-11T14:14:43.787Z,51.21
2018-07-11T14:17:11.596Z,50.98
2018-07-11T14:19:39.329Z,50.60
2018-07-11T14:22:07.065Z,50.29
2018-07-11T14:24:34.844Z,49.71
2018-07-11T14:27:02.706Z,50.14
2018-07-11T14:29:30.882Z,49.55
2018-07-11T14:31:59.412Z,49.72
2018-07-11T14:34:27.145Z,51.11
2018-07-11T14:36:54.874Z,49.92
2018-07-11T14:39:22.638Z,50.16
2018-07-11T14:41:50.305Z,50.20
2018-07-11T14:44:18.067Z,50.29
2018-07-11T14:46:45.790Z,50.18
2018-07-11T14:49:16.869Z,49.98
2018-07-11T14:51:44.655Z,50.42
2018-07-11T14:54:12.576Z,50.27
2018-07-11T14:56:40.341Z,50.34
2018-07-11T14:59:08.164Z,50.78
2018-07-11T15:01:35.910Z,51.04
2018-07-11T15:04:03.670Z,51.05
2018-07-11T15:06:31.338Z,50.72
2018-07-11T15:08:59.169Z,51.29
2018-07-11T15:11:26.875Z,51.11
2018-07-11T15:13:54.725Z,51.73
2018-07-11T15:16:22.455Z,51.11
2018-07-11T15:18:50.711Z,51.68
2018-07-11T15:21:18.419Z,51.73
2018-07-11T15:23:46.109Z,52.22
2018-07-11T15:26:13.862Z,52.03
2018-07-11T15:28:41.876Z,53.53
2018-07-11T15:31:09.692Z,53.53
2018-07-11T15:33:37.458Z,53.39
2018-07-11T15:36:05.293Z,53.40
2018-07-11T15:38:33.118Z,52.84
2018-07-11T15:41:01.554Z,53.56
2018-07-11T15:43:29.694Z,53.46
2018-07-11T15:45:58.338Z,53.05
2018-07-11T15:48:26.250Z,52.72
2018-07-11T15:50:54.788Z,52.70
2018-07-11T15:53:22.925Z,52.29
2018-07-11T15:55:51.538Z,52.82
2018-07-11T15:58:20.551Z,52.98
2018-07-11T16:00:48.371Z,53.05
2018-07-11T16:03:16.761Z,53.37
2018-07-11T16:05:45.637Z,52.53
2018-07-11T16:08:16.802Z,52.83
2018-07-11T16:10:50.867Z,51.99
2018-07-11T16:13:18.638Z,51.48
2018-07-11T16:15:46.474Z,51.85
2018-07-11T16:18:14.276Z,52.01
2018-07-11T16:20:42.092Z,50.92
2018-07-11T16:23:10.182Z,50.81
2018-07-11T16:25:39.263Z,50.39
2018-07-11T16:28:07.261Z,50.76
2018-07-11T16:30:35.341Z,51.23
2018-07-11T16:33:03.470Z,50.53
2018-07-11T16:35:31.400Z,50.50
2018-07-11T16:37:59.110Z,50.14
2018-07-11T16:40:27.833Z,49.95
2018-07-11T16:42:55.604Z,50.11
2018-07-11T16:45:23.775Z,49.69
2018-07-11T16:47:51.590Z,49.64
2018-07-11T16:50:19.819Z,49.54
2018-07-11T16:52:47.721Z,49.48
2018-07-11T16:55:15.599Z,49.80
2018-07-11T16:57:45.702Z,49.95
2018-07-11T17:00:13.461Z,49.97
2018-07-11T17:02:43.076Z,49.46
2018-07-11T17:05:11.970Z,49.67
2018-07-11T17:07:49.597Z,49.56
2018-07-11T17:10:18.892Z,49.69
2018-07-11T17:12:51.199Z,49.27
2018-07-11T17:15:20.082Z,49.16
2018-07-11T17:17:47.872Z,49.04
2018-07-11T17:20:15.685Z,48.97
2018-07-11T17:22:58.733Z,48.80
2018-07-11T17:25:34.798Z,48.56
2018-07-11T17:28:03.357Z,48.10
2018-07-11T17:30:33.788Z,47.83
2018-07-11T17:33:04.228Z,47.44
2018-07-11T17:35:32.269Z,46.96
2018-07-11T17:38:02.517Z,46.57
2018-07-11T17:40:36.138Z,46.75
2018-07-11T17:43:05.549Z,46.43
2018-07-11T17:45:35.346Z,46.55
2018-07-11T17:48:28.932Z,46.06
2018-07-11T17:51:01.001Z,46.24
2018-07-11T17:53:35.963Z,46.12
2018-07-11T17:56:08.766Z,46.11
2018-07-11T17:58:54.967Z,46.06
2018-07-11T18:01:45.996Z,46.00
2018-07-11T18:04:21.437Z,45.89
2018-07-11T18:06:57.038Z,45.89
2018-07-11T18:09:24.840Z,45.89
2018-07-11T18:11:58.509Z,45.83
2018-07-11T18:14:41.814Z,45.30
2018-07-11T18:18:23.990Z,44.90
2018-07-11T18:21:13.321Z,45.50
2018-07-11T18:24:00.993Z,45.76
2018-07-11T18:26:43.285Z,45.73
2018-07-11T18:29:19.289Z,46.08
2018-07-11T18:31:57.651Z,45.66
2018-07-11T18:34:48.122Z,45.96
2018-07-11T18:37:25.481Z,45.86
2018-07-11T18:40:00.079Z,46.08
2018-07-11T18:42:32.284Z,46.53
2018-07-11T18:45:16.842Z,47.26
2018-07-11T18:48:00.369Z,47.73
2018-07-11T18:51:39.768Z,47.61
2018-07-11T18:54:11.237Z,47.94
2018-07-11T18:57:52.485Z,47.95
2018-07-11T19:00:32.088Z,48.48
2018-07-11T19:03:17.158Z,48.66
2018-07-11T19:05:55.474Z,48.75
2018-07-11T19:08:31.302Z,49.06
2018-07-11T19:11:03.741Z,49.56
2018-07-11T19:13:33.022Z,49.72
2018-07-11T19:16:08.194Z,50.09
2018-07-11T19:19:14.694Z,50.86
2018-07-11T19:21:55.335Z,51.25
2018-07-11T19:26:40.763Z,51.77
2018-07-11T19:29:15.221Z,52.73
2018-07-11T19:31:53.538Z,54.02
2018-07-11T19:35:01.374Z,53.49
2018-07-11T19:38:12.535Z,53.67
2018-07-11T19:40:49.078Z,54.03
2018-07-11T19:46:33.070Z,54.51
2018-07-11T19:49:17.901Z,55.20
2018-07-11T19:51:59.218Z,55.66
2018-07-11T19:55:09.209Z,55.24
2018-07-11T19:57:36.978Z,55.95
2018-07-11T20:00:04.672Z,56.75
2018-07-11T20:02:32.422Z,56.79
2018-07-11T20:05:00.166Z,56.62
2018-07-11T20:07:27.863Z,56.78
2018-07-11T20:09:55.646Z,57.16
2018-07-11T20:12:23.416Z,56.92
2018-07-11T20:14:51.226Z,59.22
2018-07-11T20:17:18.906Z,57.59
2018-07-11T20:19:46.701Z,57.95
2018-07-11T20:22:14.441Z,58.27
2018-07-11T20:24:42.110Z,59.36
2018-07-11T20:27:09.875Z,57.82
2018-07-11T20:29:37.587Z,58.77
2018-07-11T20:32:05.315Z,58.91
2018-07-11T20:34:33.110Z,58.22
2018-07-11T20:37:00.806Z,58.95
2018-07-11T20:39:28.532Z,57.50
2018-07-11T20:41:56.248Z,58.06
2018-07-11T20:44:24.018Z,58.53
2018-07-11T20:46:51.770Z,58.06
2018-07-11T20:49:25.218Z,59.44
2018-07-11T20:51:52.879Z,59.25
2018-07-11T20:54:20.574Z,59.91
2018-07-11T20:56:48.268Z,58.84
2018-07-11T20:59:27.011Z,57.59
2018-07-11T21:02:05.994Z,57.63
2018-07-11T21:04:44.509Z,59.01
2018-07-11T21:09:26.305Z,58.27
2018-07-11T21:12:08.277Z,59.12
2018-07-11T21:15:19.958Z,58.70
2018-07-11T21:20:01.234Z,60.18
2018-07-11T21:22:28.897Z,61.08
2018-07-11T21:24:58.025Z,60.68
2018-07-11T21:27:25.689Z,59.92
2018-07-11T21:29:53.396Z,59.60
2018-07-11T21:32:21.071Z,62.27
2018-07-11T21:34:48.709Z,61.00
2018-07-11T21:37:16.407Z,60.48
2018-07-11T21:39:44.077Z,60.43
2018-07-11T21:42:11.805Z,62.26
2018-07-11T21:44:39.467Z,61.25
2018-07-11T21:47:07.141Z,60.67
2018-07-11T21:49:34.808Z,62.34
2018-07-11T21:52:02.498Z,61.33
2018-07-11T21:54:30.147Z,61.65
2018-07-11T21:56:57.841Z,61.80
2018-07-11T21:59:25.584Z,62.91
2018-07-11T22:01:53.307Z,62.54
2018-07-11T22:04:20.991Z,61.62
2018-07-11T22:06:48.664Z,61.03
2018-07-11T22:09:16.355Z,60.85
2018-07-11T22:11:44.050Z,60.65
2018-07-11T22:14:11.736Z,60.07
2018-07-11T22:16:39.442Z,60.72
2018-07-11T22:19:07.124Z,61.00
2018-07-11T22:21:33.574Z,60.42
2018-07-11T22:24:00.017Z,59.99
2018-07-11T22:26:27.465Z,59.41
2018-07-11T22:28:53.924Z,59.67
2018-07-11T22:31:20.394Z,60.20
2018-07-11T22:33:46.830Z,59.57
2018-07-11T22:36:13.264Z,59.24
2018-07-11T22:38:39.718Z,59.17
2018-07-11T22:41:06.160Z,58.89
2018-07-11T22:43:32.617Z,59.29
2018-07-11T22:45:59.052Z,59.35
2018-07-11T22:48:25.474Z,59.12
2018-07-11T22:50:51.934Z,59.26
2018-07-11T22:53:18.402Z,58.36
2018-07-11T22:55:44.834Z,58.20
2018-07-11T22:58:11.276Z,58.32
2018-07-11T23:00:37.701Z,57.68
2018-07-11T23:03:04.121Z,57.24
2018-07-11T23:05:30.731Z,57.11
2018-07-11T23:07:57.163Z,57.05
2018-07-11T23:10:23.596Z,56.50
2018-07-11T23:12:50.077Z,55.76
2018-07-11T23:15:16.513Z,57.29
2018-07-11T23:17:42.946Z,56.72
2018-07-11T23:20:09.817Z,57.04
2018-07-11T23:22:36.249Z,57.85
2018-07-11T23:25:02.693Z,59.30
2018-07-11T23:27:29.155Z,59.04
2018-07-11T23:29:55.610Z,58.02
2018-07-11T23:32:22.066Z,58.45
2018-07-11T23:34:48.514Z,59.32
2018-07-11T23:37:14.922Z,60.09
2018-07-11T23:39:41.362Z,60.33
2018-07-11T23:42:07.790Z,59.52
2018-07-11T23:44:34.241Z,58.49
2018-07-11T23:47:00.656Z,59.47
2018-07-11T23:49:27.081Z,59.67
2018-07-11T23:51:54.213Z,59.40
2018-07-11T23:54:20.686Z,58.37
2018-07-11T23:56:47.142Z,57.82
2018-07-11T23:59:13.601Z,59.14
